Weather at Columbus Metropolitan Airport

Public forecast

Using degrees Fahrenheit for public forecast. Weather courtesy of forecast.io.

Current aviation weather report (METAR) for Columbus Metropolitan Airport

2024/05/28 22:51 (retrieved 38 minutes ago)

KCSG 282251Z 33010KT 10SM FEW080 31/13 A2998 RMK AO2 SLP148 T03110128

Aviation forecast (TAF) for Columbus Metropolitan Airport

2024/05/28 18:27 (retrieved 5 hours ago)

TAF KCSG 281725Z 2818/2918 32008G15KT P6SM SKC FM290200 33004KT P6SM SKC FM291600 36007KT P6SM SKC